Shalimar, Florida
Current Conditions -  °F | °C
As of 8:55 PM on Thursday 18 Dec 2014 (Local Time) from KVPS Reporting Station
Broken Clouds Broken Clouds  
Wind Chill: 50°   Ceiling: 25000
Heat Index: 50°   Visibility: 10mi
Dew Point: 44°   Wind: 3mph
Humidity: 81%   Direction: 290°WNW
Pressure: 30.16"   Gusts: NA
Location:  30.45°N, 86.58°W
Report Text: KVPS 190255Z 29003KT 10SM FEW100 BKN250 10/07 A3016 RMK AO2A SLP220 T00990068 50011 $
Loading
Personal Weather Stations






























Interactive Weather Map New forecast layout! Learn more

10-Day Weather Forecast

Advertisements
Track Severe Weather on mobile